createdAt,value
2019-04-07T00:00:35.877Z,11.22
2019-04-07T00:03:08.045Z,11.25
2019-04-07T00:05:41.456Z,11.26
2019-04-07T00:08:13.754Z,11.17
2019-04-07T00:10:45.535Z,11.12
2019-04-07T00:13:17.340Z,11.16
2019-04-07T00:15:49.149Z,11.14
2019-04-07T00:18:20.857Z,11.06
2019-04-07T00:20:52.877Z,11.02
2019-04-07T00:23:25.163Z,11.05
2019-04-07T00:25:56.931Z,11.00
2019-04-07T00:28:28.725Z,10.91
2019-04-07T00:31:00.725Z,10.87
2019-04-07T00:33:32.652Z,10.83
2019-04-07T00:36:04.639Z,10.87
2019-04-07T00:38:36.401Z,10.89
2019-04-07T00:41:08.884Z,10.85
2019-04-07T00:43:41.792Z,10.81
2019-04-07T00:46:13.784Z,10.72
2019-04-07T00:48:45.566Z,10.66
2019-04-07T00:51:17.850Z,10.69
2019-04-07T00:53:50.770Z,10.69
2019-04-07T00:56:22.684Z,10.69
2019-04-07T00:58:54.559Z,10.63
2019-04-07T01:01:26.358Z,10.59
2019-04-07T01:03:58.405Z,10.54
2019-04-07T01:06:30.269Z,10.49
2019-04-07T01:09:01.988Z,10.45
2019-04-07T01:11:35.447Z,10.38
2019-04-07T01:14:08.217Z,10.32
2019-04-07T01:16:41.771Z,10.25
2019-04-07T01:19:14.590Z,10.22
2019-04-07T01:21:46.918Z,10.21
2019-04-07T01:24:18.745Z,10.18
2019-04-07T01:26:51.647Z,10.11
2019-04-07T01:29:23.465Z,10.16
2019-04-07T01:31:55.967Z,10.15
2019-04-07T01:34:28.942Z,10.13
2019-04-07T01:37:02.055Z,10.06
2019-04-07T01:39:33.948Z,10.05
2019-04-07T01:42:12.585Z,9.94
2019-04-07T01:45:02.837Z,9.88
2019-04-07T01:47:44.287Z,9.94
2019-04-07T01:50:28.636Z,9.92
2019-04-07T01:53:10.765Z,9.90
2019-04-07T01:56:01.869Z,9.81
2019-04-07T01:58:43.481Z,9.85
2019-04-07T02:01:37.248Z,9.86
2019-04-07T02:04:45.882Z,9.83
2019-04-07T02:07:49.009Z,9.72
2019-04-07T02:10:30.633Z,9.75
2019-04-07T02:13:20.715Z,9.71
2019-04-07T02:16:12.324Z,9.64
2019-04-07T02:18:54.238Z,9.68
2019-04-07T02:21:44.974Z,9.58
2019-04-07T02:24:38.099Z,9.45
2019-04-07T02:27:29.415Z,9.37
2019-04-07T02:30:17.201Z,9.33
2019-04-07T02:33:06.996Z,9.33
2019-04-07T02:35:56.021Z,9.26
2019-04-07T02:39:06.010Z,9.06
2019-04-07T02:41:48.738Z,8.99
2019-04-07T02:44:51.172Z,9.03
2019-04-07T02:47:44.679Z,9.03
2019-04-07T02:50:35.450Z,8.92
2019-04-07T02:53:20.361Z,8.85
2019-04-07T02:56:01.996Z,8.84
2019-04-07T02:58:44.361Z,8.94
2019-04-07T03:01:35.178Z,8.84
2019-04-07T03:04:24.556Z,8.84
2019-04-07T03:07:13.562Z,8.76
2019-04-07T03:10:13.439Z,8.79
2019-04-07T03:12:57.514Z,8.68
2019-04-07T03:15:46.257Z,8.52
2019-04-07T03:18:37.412Z,8.44
2019-04-07T03:21:28.130Z,8.29
2019-04-07T03:24:24.713Z,8.26
2019-04-07T03:27:13.660Z,8.17
2019-04-07T03:30:17.832Z,8.16
2019-04-07T03:33:14.246Z,8.26
2019-04-07T03:36:05.748Z,8.36
2019-04-07T03:38:53.819Z,8.41
2019-04-07T03:41:53.756Z,8.46
2019-04-07T03:44:34.515Z,8.41
2019-04-07T03:47:32.066Z,8.33
2019-04-07T03:50:23.056Z,8.34
2019-04-07T03:53:12.438Z,8.25
2019-04-07T03:55:53.481Z,8.28
2019-04-07T03:58:42.988Z,8.19
2019-04-07T04:01:34.284Z,8.14
2019-04-07T04:04:44.205Z,8.08
2019-04-07T04:07:31.560Z,8.06
2019-04-07T04:10:23.856Z,7.95
2019-04-07T04:13:14.384Z,8.06
2019-04-07T04:15:56.684Z,8.06
2019-04-07T04:18:28.750Z,8.08
2019-04-07T04:21:01.408Z,8.11
2019-04-07T04:23:33.699Z,8.02
2019-04-07T04:26:06.358Z,7.92
2019-04-07T04:28:39.052Z,7.86
2019-04-07T04:31:11.126Z,7.87
2019-04-07T04:33:42.933Z,7.91
2019-04-07T04:36:15.560Z,7.86
2019-04-07T04:38:48.034Z,7.87
2019-04-07T04:41:20.917Z,8.00
2019-04-07T04:43:53.512Z,8.03
2019-04-07T04:46:26.221Z,8.06
2019-04-07T04:48:59.292Z,8.03
2019-04-07T04:51:35.473Z,8.08
2019-04-07T04:54:07.143Z,8.02
2019-04-07T04:56:39.441Z,7.99
2019-04-07T04:59:11.453Z,8.11
2019-04-07T05:01:43.471Z,8.15
2019-04-07T05:04:15.258Z,8.27
2019-04-07T05:06:47.816Z,8.33
2019-04-07T05:09:20.027Z,8.40
2019-04-07T05:11:51.810Z,8.45
2019-04-07T05:14:24.176Z,8.44
2019-04-07T05:16:56.094Z,8.49
2019-04-07T05:19:28.279Z,8.50
2019-04-07T05:22:00.219Z,8.49
2019-04-07T05:24:32.220Z,8.50
2019-04-07T05:27:03.987Z,8.53
2019-04-07T05:29:35.755Z,8.58
2019-04-07T05:32:07.989Z,8.62
2019-04-07T05:34:40.311Z,8.70
2019-04-07T05:37:12.106Z,8.75
2019-04-07T05:39:43.870Z,8.84
2019-04-07T05:42:15.752Z,8.86
2019-04-07T05:44:47.654Z,8.87
2019-04-07T05:47:19.999Z,8.94
2019-04-07T05:49:54.493Z,9.00
2019-04-07T05:52:25.286Z,9.02
2019-04-07T05:54:57.786Z,9.02
2019-04-07T05:57:33.359Z,9.11
2019-04-07T06:00:04.265Z,9.13
2019-04-07T06:02:36.335Z,9.19
2019-04-07T06:05:08.233Z,9.27
2019-04-07T06:07:40.111Z,9.28
2019-04-07T06:10:11.962Z,9.39
2019-04-07T06:12:47.150Z,9.46
2019-04-07T06:15:21.998Z,9.52
2019-04-07T06:17:52.207Z,9.61
2019-04-07T06:20:24.704Z,9.68
2019-04-07T06:22:56.523Z,9.75
2019-04-07T06:25:33.244Z,9.79
2019-04-07T06:28:02.265Z,9.85
2019-04-07T06:30:36.114Z,9.92
2019-04-07T06:33:07.449Z,10.02
2019-04-07T06:35:39.331Z,10.08
2019-04-07T06:38:11.042Z,10.21
2019-04-07T06:40:43.694Z,10.28
2019-04-07T06:43:15.676Z,10.38
2019-04-07T06:45:57.402Z,10.51
2019-04-07T06:48:30.496Z,10.56
2019-04-07T06:51:12.459Z,10.68
2019-04-07T06:54:04.938Z,10.81
2019-04-07T06:57:06.311Z,10.90
2019-04-07T06:59:52.475Z,11.01
2019-04-07T07:02:51.967Z,11.15
2019-04-07T07:05:36.489Z,11.22
2019-04-07T07:08:42.459Z,11.37
2019-04-07T07:11:28.582Z,11.42
2019-04-07T07:14:07.803Z,11.52
2019-04-07T07:16:53.070Z,11.55
2019-04-07T07:19:49.837Z,11.66
2019-04-07T07:22:34.784Z,11.73
2019-04-07T07:25:06.757Z,11.83
2019-04-07T07:27:40.383Z,11.96
2019-04-07T07:30:12.148Z,12.05
2019-04-07T07:32:44.240Z,12.13
2019-04-07T07:35:16.445Z,12.15
2019-04-07T07:37:48.448Z,12.26
2019-04-07T07:40:21.063Z,12.36
2019-04-07T07:42:55.432Z,12.46
2019-04-07T07:45:27.363Z,12.52
2019-04-07T07:47:59.262Z,12.60
2019-04-07T07:50:34.707Z,12.71
2019-04-07T07:53:06.805Z,12.82
2019-04-07T07:55:38.740Z,12.97
2019-04-07T07:58:11.602Z,13.11
2019-04-07T08:00:47.589Z,13.27
2019-04-07T08:03:22.631Z,13.37
2019-04-07T08:05:53.335Z,13.42
2019-04-07T08:08:25.372Z,13.61
2019-04-07T08:11:00.631Z,13.74
2019-04-07T08:13:32.491Z,13.69
2019-04-07T08:16:06.950Z,13.84
2019-04-07T08:18:43.540Z,13.97
2019-04-07T08:21:17.627Z,14.09
2019-04-07T08:23:51.360Z,14.25
2019-04-07T08:26:26.006Z,14.41
2019-04-07T08:28:58.124Z,14.57
2019-04-07T08:31:30.430Z,14.67
2019-04-07T08:34:02.368Z,14.79
2019-04-07T08:36:36.514Z,14.73
2019-04-07T08:39:19.391Z,14.88
2019-04-07T08:41:43.675Z,15.04
2019-04-07T08:44:17.567Z,15.11
2019-04-07T08:46:52.912Z,15.26
2019-04-07T08:49:27.714Z,15.45
2019-04-07T08:52:04.019Z,15.60
2019-04-07T08:54:33.100Z,15.72
2019-04-07T08:57:05.683Z,15.82
2019-04-07T08:59:42.388Z,15.99
2019-04-07T09:02:11.367Z,15.99
2019-04-07T09:04:47.272Z,16.08
2019-04-07T09:07:17.650Z,16.16
2019-04-07T09:09:50.180Z,16.18
2019-04-07T09:12:24.937Z,16.34
2019-04-07T09:14:55.880Z,16.54
2019-04-07T09:17:58.941Z,16.64
2019-04-07T09:21:07.841Z,16.88
2019-04-07T09:24:09.404Z,17.14
2019-04-07T09:27:02.312Z,17.39
2019-04-07T09:30:01.221Z,17.72
2019-04-07T09:32:52.506Z,17.89
2019-04-07T09:35:49.758Z,18.03
2019-04-07T09:38:29.426Z,18.18
2019-04-07T09:41:28.547Z,18.39
2019-04-07T09:44:25.419Z,18.45
2019-04-07T09:47:22.646Z,18.60
2019-04-07T09:50:07.241Z,18.66
2019-04-07T09:52:52.469Z,18.90
2019-04-07T09:55:35.571Z,19.04
2019-04-07T09:58:26.407Z,19.21
2019-04-07T10:01:20.026Z,19.30
2019-04-07T10:04:13.094Z,19.32
2019-04-07T10:07:00.964Z,19.61
2019-04-07T10:09:48.577Z,19.87
2019-04-07T10:12:40.494Z,19.95
2019-04-07T10:15:31.685Z,19.93
2019-04-07T10:18:13.119Z,20.13
2019-04-07T10:21:03.904Z,20.18
2019-04-07T10:23:45.860Z,20.27
2019-04-07T10:26:36.331Z,20.29
2019-04-07T10:29:27.586Z,20.53
2019-04-07T10:32:13.756Z,20.85
2019-04-07T10:35:08.024Z,21.07
2019-04-07T10:37:58.745Z,21.21
2019-04-07T10:40:45.417Z,21.54
2019-04-07T10:43:48.215Z,21.67
2019-04-07T10:46:40.041Z,21.74
2019-04-07T10:49:36.219Z,21.99
2019-04-07T10:52:22.238Z,22.14
2019-04-07T10:55:11.362Z,22.27
2019-04-07T10:58:05.467Z,22.21
2019-04-07T11:00:57.665Z,22.40
2019-04-07T11:03:45.385Z,22.33
2019-04-07T11:06:35.745Z,22.40
2019-04-07T11:09:28.383Z,22.15
2019-04-07T11:12:23.006Z,22.38
2019-04-07T11:15:13.796Z,22.52
2019-04-07T11:18:14.780Z,22.81
2019-04-07T11:21:04.676Z,23.11
2019-04-07T11:23:47.782Z,22.91
2019-04-07T11:26:33.141Z,23.20
2019-04-07T11:29:11.837Z,23.42
2019-04-07T11:31:56.876Z,23.44
2019-04-07T11:34:53.597Z,23.53
2019-04-07T11:37:44.195Z,23.64
2019-04-07T11:40:44.487Z,23.91
2019-04-07T11:43:28.919Z,23.94
2019-04-07T11:46:13.949Z,23.51
2019-04-07T11:48:54.726Z,23.41
2019-04-07T11:51:46.753Z,23.39
2019-04-07T11:54:35.596Z,23.36
2019-04-07T11:57:23.435Z,23.54
2019-04-07T12:00:25.119Z,23.74
2019-04-07T12:03:27.628Z,23.95
2019-04-07T12:06:14.211Z,23.89
2019-04-07T12:09:05.048Z,23.89
2019-04-07T12:11:54.469Z,23.74
2019-04-07T12:14:43.008Z,23.63
2019-04-07T12:17:32.065Z,23.40
2019-04-07T12:20:10.854Z,23.26
2019-04-07T12:22:58.254Z,23.09
2019-04-07T12:25:48.287Z,22.99
2019-04-07T12:28:50.391Z,22.81
2019-04-07T12:31:48.669Z,22.66
2019-04-07T12:34:38.647Z,22.45
2019-04-07T12:37:19.618Z,22.32
2019-04-07T12:40:26.629Z,22.18
2019-04-07T12:43:07.312Z,22.02
2019-04-07T12:46:10.137Z,21.99
2019-04-07T12:49:17.616Z,21.95
2019-04-07T12:52:09.665Z,21.94
2019-04-07T12:54:48.986Z,22.01
2019-04-07T12:57:39.564Z,21.92
2019-04-07T13:00:39.108Z,21.88
2019-04-07T13:03:37.512Z,21.88
2019-04-07T13:06:28.772Z,21.87
2019-04-07T13:09:10.679Z,21.86
2019-04-07T13:12:15.093Z,21.82
2019-04-07T13:14:54.651Z,21.88
2019-04-07T13:17:42.226Z,21.92
2019-04-07T13:20:42.575Z,21.92
2019-04-07T13:23:36.066Z,21.92
2019-04-07T13:26:33.518Z,21.76
2019-04-07T13:29:11.813Z,21.89
2019-04-07T13:31:50.600Z,21.92
2019-04-07T13:34:45.375Z,21.85
2019-04-07T13:37:33.045Z,21.75
2019-04-07T13:40:36.404Z,21.74
2019-04-07T13:43:33.144Z,21.76
2019-04-07T13:46:33.515Z,21.80
2019-04-07T13:49:33.299Z,21.85
2019-04-07T13:52:31.189Z,21.84
2019-04-07T13:55:10.421Z,21.87
2019-04-07T13:57:57.706Z,21.82
2019-04-07T14:00:54.171Z,21.80
2019-04-07T14:03:35.824Z,21.87
2019-04-07T14:06:16.424Z,21.63
2019-04-07T14:09:29.051Z,21.70
2019-04-07T14:12:13.863Z,21.78
2019-04-07T14:15:14.280Z,21.78
2019-04-07T14:18:05.801Z,21.84
2019-04-07T14:20:43.084Z,21.84
2019-04-07T14:23:34.277Z,21.82
2019-04-07T14:26:34.625Z,21.73
2019-04-07T14:29:31.667Z,21.73
2019-04-07T14:32:31.593Z,21.75
2019-04-07T14:35:25.818Z,21.83
2019-04-07T14:38:15.761Z,21.94
2019-04-07T14:41:06.497Z,21.96
2019-04-07T14:44:00.639Z,21.96
2019-04-07T14:46:46.739Z,21.90
2019-04-07T14:49:41.107Z,21.79
2019-04-07T14:52:21.570Z,21.94
2019-04-07T14:55:19.571Z,21.93
2019-04-07T14:58:16.792Z,21.94
2019-04-07T15:01:05.896Z,22.00
2019-04-07T15:03:36.684Z,22.09
2019-04-07T15:06:08.766Z,22.27
2019-04-07T15:08:46.284Z,22.24
2019-04-07T15:11:32.288Z,22.36
2019-04-07T15:14:04.281Z,22.62
2019-04-07T15:16:36.815Z,22.85
2019-04-07T15:19:09.562Z,22.92
2019-04-07T15:21:42.195Z,23.08
2019-04-07T15:24:13.925Z,23.23
2019-04-07T15:26:49.508Z,23.44
2019-04-07T15:29:19.898Z,23.50
2019-04-07T15:31:53.258Z,23.98
2019-04-07T15:34:26.414Z,23.97
2019-04-07T15:37:02.206Z,24.18
2019-04-07T15:39:37.146Z,24.27
2019-04-07T15:42:09.483Z,24.78
2019-04-07T15:44:42.769Z,25.54
2019-04-07T15:47:15.403Z,26.20
2019-04-07T15:49:47.160Z,26.52
2019-04-07T15:52:19.654Z,26.84
2019-04-07T15:54:54.337Z,27.22
2019-04-07T15:57:25.744Z,27.39
2019-04-07T16:00:00.067Z,27.59
2019-04-07T16:02:31.311Z,28.09
2019-04-07T16:05:03.711Z,28.34
2019-04-07T16:07:36.346Z,28.49
2019-04-07T16:10:08.319Z,28.71
2019-04-07T16:12:46.500Z,28.76
2019-04-07T16:15:16.408Z,29.00
2019-04-07T16:17:47.610Z,28.89
2019-04-07T16:20:24.513Z,28.84
2019-04-07T16:22:52.908Z,28.59
2019-04-07T16:25:27.615Z,28.71
2019-04-07T16:27:58.749Z,28.47
2019-04-07T16:30:30.622Z,28.11
2019-04-07T16:33:04.416Z,27.15
2019-04-07T16:35:36.525Z,26.99
2019-04-07T16:38:09.448Z,26.53
2019-04-07T16:40:43.300Z,26.31
2019-04-07T16:43:17.495Z,26.22
2019-04-07T16:45:48.986Z,25.94
2019-04-07T16:48:20.912Z,25.29
2019-04-07T16:50:55.277Z,24.98
2019-04-07T16:53:26.949Z,24.61
2019-04-07T16:55:58.904Z,23.83
2019-04-07T16:58:34.344Z,23.68
2019-04-07T17:01:04.613Z,23.27
2019-04-07T17:03:36.563Z,22.87
2019-04-07T17:06:11.751Z,22.37
2019-04-07T17:08:42.325Z,22.05
2019-04-07T17:11:14.216Z,21.84
2019-04-07T17:13:46.098Z,21.57
2019-04-07T17:16:22.605Z,21.38
2019-04-07T17:18:55.383Z,21.19
2019-04-07T17:21:25.508Z,21.00
2019-04-07T17:23:58.120Z,20.82
2019-04-07T17:26:30.736Z,20.58
2019-04-07T17:29:03.213Z,20.39
2019-04-07T17:31:35.174Z,20.23
2019-04-07T17:34:09.891Z,20.05
2019-04-07T17:36:40.858Z,19.80
2019-04-07T17:39:28.075Z,19.64
2019-04-07T17:42:01.572Z,19.41
2019-04-07T17:44:41.396Z,19.27
2019-04-07T17:47:38.165Z,18.98
2019-04-07T17:50:38.976Z,18.79
2019-04-07T17:53:40.141Z,18.61
2019-04-07T17:56:24.267Z,18.39
2019-04-07T17:59:24.203Z,18.16
2019-04-07T18:02:18.143Z,17.94
2019-04-07T18:05:22.050Z,17.76
2019-04-07T18:08:19.875Z,17.59
2019-04-07T18:11:17.723Z,17.44
2019-04-07T18:14:12.910Z,17.32
2019-04-07T18:17:13.104Z,17.17
2019-04-07T18:19:59.519Z,17.00
2019-04-07T18:22:56.996Z,16.88
2019-04-07T18:25:43.372Z,16.71
2019-04-07T18:28:34.341Z,16.45
2019-04-07T18:31:35.058Z,16.19
2019-04-07T18:34:32.113Z,16.14
2019-04-07T18:37:24.035Z,16.21
2019-04-07T18:40:18.663Z,16.25
2019-04-07T18:43:12.201Z,16.08
2019-04-07T18:46:01.129Z,15.95
2019-04-07T18:49:04.429Z,15.98
2019-04-07T18:51:53.743Z,15.97
2019-04-07T18:54:44.793Z,15.92
2019-04-07T18:57:45.074Z,15.78
2019-04-07T19:00:37.279Z,15.64
2019-04-07T19:03:41.795Z,15.60
2019-04-07T19:06:40.040Z,15.48
2019-04-07T19:09:33.129Z,15.43
2019-04-07T19:12:24.840Z,15.33
2019-04-07T19:15:36.541Z,15.25
2019-04-07T19:18:23.511Z,15.12
2019-04-07T19:21:20.440Z,14.86
2019-04-07T19:23:59.092Z,14.71
2019-04-07T19:26:54.309Z,14.43
2019-04-07T19:29:49.934Z,14.24
2019-04-07T19:32:43.156Z,14.06
2019-04-07T19:35:37.726Z,14.10
2019-04-07T19:38:30.968Z,14.10
2019-04-07T19:41:18.748Z,14.05
2019-04-07T19:44:17.551Z,14.05
2019-04-07T19:47:20.540Z,13.98
2019-04-07T19:50:23.494Z,13.83
2019-04-07T19:53:14.611Z,13.83
2019-04-07T19:56:20.885Z,13.75
2019-04-07T19:59:11.485Z,13.58
2019-04-07T20:02:17.645Z,13.48
2019-04-07T20:05:10.118Z,13.48
2019-04-07T20:08:14.777Z,13.40
2019-04-07T20:10:55.865Z,13.10
2019-04-07T20:13:45.212Z,13.04
2019-04-07T20:16:26.971Z,13.07
2019-04-07T20:19:15.398Z,12.98
2019-04-07T20:22:09.157Z,12.88
2019-04-07T20:25:00.791Z,12.79
2019-04-07T20:27:57.357Z,12.77
2019-04-07T20:30:37.726Z,12.70
2019-04-07T20:33:32.759Z,12.65
2019-04-07T20:36:23.761Z,12.69
2019-04-07T20:39:07.272Z,12.66
2019-04-07T20:41:49.390Z,12.56
2019-04-07T20:44:38.813Z,12.52
2019-04-07T20:47:23.619Z,12.33
2019-04-07T20:50:11.854Z,12.25
2019-04-07T20:53:11.407Z,12.22
2019-04-07T20:55:53.983Z,12.18
2019-04-07T20:58:53.025Z,12.15
2019-04-07T21:01:35.445Z,12.05
2019-04-07T21:04:25.682Z,12.03
2019-04-07T21:07:29.802Z,11.98
2019-04-07T21:10:24.314Z,11.94
2019-04-07T21:13:30.155Z,11.74
2019-04-07T21:16:26.002Z,11.69
2019-04-07T21:19:13.024Z,11.64
2019-04-07T21:22:15.350Z,11.70
2019-04-07T21:25:01.794Z,11.71
2019-04-07T21:27:39.292Z,11.62
2019-04-07T21:30:27.266Z,11.50
2019-04-07T21:33:23.769Z,11.43
2019-04-07T21:36:12.076Z,11.40
2019-04-07T21:39:01.628Z,11.20
2019-04-07T21:41:52.047Z,11.16
2019-04-07T21:44:34.663Z,11.03
2019-04-07T21:47:14.257Z,10.96
2019-04-07T21:49:56.255Z,10.79
2019-04-07T21:52:43.255Z,10.75
2019-04-07T21:55:31.609Z,10.61
2019-04-07T21:58:14.500Z,10.64
2019-04-07T22:01:02.860Z,10.64
2019-04-07T22:03:52.210Z,10.73
2019-04-07T22:06:39.258Z,10.70
2019-04-07T22:09:23.312Z,10.69
2019-04-07T22:11:56.142Z,10.58
2019-04-07T22:14:28.370Z,10.49
2019-04-07T22:17:02.456Z,10.44
2019-04-07T22:19:33.959Z,10.39
2019-04-07T22:22:06.867Z,10.37
2019-04-07T22:24:39.536Z,10.32
2019-04-07T22:27:12.476Z,10.36
2019-04-07T22:29:44.900Z,10.35
2019-04-07T22:32:19.280Z,10.30
2019-04-07T22:34:50.463Z,10.20
2019-04-07T22:37:23.424Z,10.16
2019-04-07T22:39:59.089Z,10.12
2019-04-07T22:42:28.841Z,9.99
2019-04-07T22:45:00.693Z,9.93
2019-04-07T22:47:32.573Z,9.80
2019-04-07T22:50:05.760Z,9.78
2019-04-07T22:52:38.278Z,9.82
2019-04-07T22:55:10.169Z,9.79
2019-04-07T22:57:42.021Z,9.68
2019-04-07T23:00:23.351Z,9.67
2019-04-07T23:02:55.445Z,9.64
2019-04-07T23:05:27.686Z,9.58
2019-04-07T23:07:59.910Z,9.58
2019-04-07T23:10:31.882Z,9.58
2019-04-07T23:13:03.717Z,9.58
2019-04-07T23:15:42.567Z,9.56
2019-04-07T23:18:10.306Z,9.56
2019-04-07T23:20:43.887Z,9.61
2019-04-07T23:23:16.450Z,9.59
2019-04-07T23:25:48.278Z,9.48
2019-04-07T23:28:20.859Z,9.38
2019-04-07T23:30:52.756Z,9.22
2019-04-07T23:33:25.560Z,9.30
2019-04-07T23:35:57.526Z,9.33
2019-04-07T23:38:30.327Z,9.10
2019-04-07T23:41:03.241Z,9.02
2019-04-07T23:43:35.540Z,9.00
2019-04-07T23:46:19.445Z,8.91
2019-04-07T23:48:40.831Z,8.76
2019-04-07T23:51:12.945Z,8.76
2019-04-07T23:54:12.201Z,8.71
2019-04-07T23:56:44.889Z,8.76
2019-04-07T23:59:16.910Z,8.70
